sensor_id;sensor_type;location;lat;lon;timestamp;P1;durP1;ratioP1;P2;durP2;ratioP2
24145;SDS011;12308;50.948;4.706;2022-10-31T00:00:53;40.42;;;23.77;;
24145;SDS011;12308;50.948;4.706;2022-10-31T00:03:18;42.70;;;21.92;;
24145;SDS011;12308;50.948;4.706;2022-10-31T00:05:45;38.42;;;22.02;;
24145;SDS011;12308;50.948;4.706;2022-10-31T00:08:13;40.88;;;22.20;;
24145;SDS011;12308;50.948;4.706;2022-10-31T00:10:42;38.17;;;22.13;;
24145;SDS011;12308;50.948;4.706;2022-10-31T00:13:08;43.75;;;22.27;;
24145;SDS011;12308;50.948;4.706;2022-10-31T00:15:35;47.35;;;21.50;;
24145;SDS011;12308;50.948;4.706;2022-10-31T00:18:04;37.40;;;21.83;;
24145;SDS011;12308;50.948;4.706;2022-10-31T00:20:30;37.42;;;21.17;;
24145;SDS011;12308;50.948;4.706;2022-10-31T00:22:59;43.22;;;22.23;;
24145;SDS011;12308;50.948;4.706;2022-10-31T00:25:26;46.08;;;22.48;;
24145;SDS011;12308;50.948;4.706;2022-10-31T00:27:53;41.53;;;22.55;;
24145;SDS011;12308;50.948;4.706;2022-10-31T00:30:19;39.03;;;23.02;;
24145;SDS011;12308;50.948;4.706;2022-10-31T00:32:45;37.78;;;20.67;;
24145;SDS011;12308;50.948;4.706;2022-10-31T00:35:10;39.13;;;21.63;;
24145;SDS011;12308;50.948;4.706;2022-10-31T00:37:36;44.05;;;22.30;;
24145;SDS011;12308;50.948;4.706;2022-10-31T00:40:02;36.47;;;21.17;;
24145;SDS011;12308;50.948;4.706;2022-10-31T00:42:27;38.53;;;21.88;;
24145;SDS011;12308;50.948;4.706;2022-10-31T00:44:53;42.05;;;20.85;;
24145;SDS011;12308;50.948;4.706;2022-10-31T00:47:19;38.13;;;21.65;;
24145;SDS011;12308;50.948;4.706;2022-10-31T00:49:44;38.38;;;21.38;;
24145;SDS011;12308;50.948;4.706;2022-10-31T00:52:10;32.95;;;20.30;;
24145;SDS011;12308;50.948;4.706;2022-10-31T00:54:35;39.55;;;21.13;;
24145;SDS011;12308;50.948;4.706;2022-10-31T00:57:01;36.47;;;21.08;;
24145;SDS011;12308;50.948;4.706;2022-10-31T00:59:27;44.30;;;21.58;;
24145;SDS011;12308;50.948;4.706;2022-10-31T01:01:53;41.50;;;22.35;;
24145;SDS011;12308;50.948;4.706;2022-10-31T01:04:19;41.78;;;21.40;;
24145;SDS011;12308;50.948;4.706;2022-10-31T01:06:44;38.17;;;20.50;;
24145;SDS011;12308;50.948;4.706;2022-10-31T01:09:10;32.90;;;20.05;;
24145;SDS011;12308;50.948;4.706;2022-10-31T01:11:36;32.15;;;20.52;;
24145;SDS011;12308;50.948;4.706;2022-10-31T01:14:01;31.92;;;19.88;;
24145;SDS011;12308;50.948;4.706;2022-10-31T01:16:27;35.83;;;20.70;;
24145;SDS011;12308;50.948;4.706;2022-10-31T01:18:54;33.15;;;20.05;;
24145;SDS011;12308;50.948;4.706;2022-10-31T01:21:21;39.58;;;18.75;;
24145;SDS011;12308;50.948;4.706;2022-10-31T01:23:49;32.72;;;18.38;;
24145;SDS011;12308;50.948;4.706;2022-10-31T01:26:19;30.30;;;17.98;;
24145;SDS011;12308;50.948;4.706;2022-10-31T01:28:47;38.38;;;19.17;;
24145;SDS011;12308;50.948;4.706;2022-10-31T01:31:15;36.90;;;18.83;;
24145;SDS011;12308;50.948;4.706;2022-10-31T01:33:41;40.28;;;19.13;;
24145;SDS011;12308;50.948;4.706;2022-10-31T01:38:43;35.85;;;19.30;;
24145;SDS011;12308;50.948;4.706;2022-10-31T01:41:10;30.30;;;18.27;;
24145;SDS011;12308;50.948;4.706;2022-10-31T01:43:54;40.63;;;19.00;;
24145;SDS011;12308;50.948;4.706;2022-10-31T01:46:36;28.87;;;18.43;;
24145;SDS011;12308;50.948;4.706;2022-10-31T01:49:09;29.80;;;18.00;;
24145;SDS011;12308;50.948;4.706;2022-10-31T01:51:38;32.85;;;18.17;;
24145;SDS011;12308;50.948;4.706;2022-10-31T01:54:11;32.63;;;17.02;;
24145;SDS011;12308;50.948;4.706;2022-10-31T01:56:40;29.35;;;15.95;;
24145;SDS011;12308;50.948;4.706;2022-10-31T01:59:11;27.73;;;16.38;;
24145;SDS011;12308;50.948;4.706;2022-10-31T02:01:41;32.50;;;16.55;;
24145;SDS011;12308;50.948;4.706;2022-10-31T02:04:07;25.67;;;16.13;;
24145;SDS011;12308;50.948;4.706;2022-10-31T02:09:07;28.63;;;15.85;;
24145;SDS011;12308;50.948;4.706;2022-10-31T02:11:34;23.58;;;15.48;;
24145;SDS011;12308;50.948;4.706;2022-10-31T02:14:01;26.48;;;14.95;;
24145;SDS011;12308;50.948;4.706;2022-10-31T02:16:27;33.30;;;16.15;;
24145;SDS011;12308;50.948;4.706;2022-10-31T02:18:53;30.67;;;16.70;;
24145;SDS011;12308;50.948;4.706;2022-10-31T02:21:30;22.40;;;16.00;;
24145;SDS011;12308;50.948;4.706;2022-10-31T02:26:57;24.48;;;15.40;;
24145;SDS011;12308;50.948;4.706;2022-10-31T02:40:35;30.90;;;16.40;;
24145;SDS011;12308;50.948;4.706;2022-10-31T02:48:20;33.75;;;17.92;;
24145;SDS011;12308;50.948;4.706;2022-10-31T02:50:54;27.80;;;15.93;;
24145;SDS011;12308;50.948;4.706;2022-10-31T02:53:22;29.02;;;16.25;;
24145;SDS011;12308;50.948;4.706;2022-10-31T02:58:17;31.52;;;16.80;;
24145;SDS011;12308;50.948;4.706;2022-10-31T03:03:27;30.20;;;17.77;;
24145;SDS011;12308;50.948;4.706;2022-10-31T03:06:17;33.67;;;19.27;;
24145;SDS011;12308;50.948;4.706;2022-10-31T03:08:56;35.42;;;18.98;;
24145;SDS011;12308;50.948;4.706;2022-10-31T03:11:46;29.83;;;18.00;;
24145;SDS011;12308;50.948;4.706;2022-10-31T03:20:15;27.83;;;15.65;;
24145;SDS011;12308;50.948;4.706;2022-10-31T03:22:44;28.25;;;16.50;;
24145;SDS011;12308;50.948;4.706;2022-10-31T03:25:11;31.55;;;17.00;;
24145;SDS011;12308;50.948;4.706;2022-10-31T03:27:38;27.80;;;17.92;;
24145;SDS011;12308;50.948;4.706;2022-10-31T03:30:06;25.98;;;16.52;;
24145;SDS011;12308;50.948;4.706;2022-10-31T03:32:35;33.20;;;17.00;;
24145;SDS011;12308;50.948;4.706;2022-10-31T03:35:07;34.30;;;17.20;;
24145;SDS011;12308;50.948;4.706;2022-10-31T03:37:34;34.85;;;17.33;;
24145;SDS011;12308;50.948;4.706;2022-10-31T03:40:02;32.53;;;17.52;;
24145;SDS011;12308;50.948;4.706;2022-10-31T03:42:32;32.05;;;16.48;;
24145;SDS011;12308;50.948;4.706;2022-10-31T03:48:04;27.88;;;16.50;;
24145;SDS011;12308;50.948;4.706;2022-10-31T03:50:32;30.40;;;16.55;;
24145;SDS011;12308;50.948;4.706;2022-10-31T03:53:14;29.00;;;16.75;;
24145;SDS011;12308;50.948;4.706;2022-10-31T03:55:51;26.52;;;16.13;;
24145;SDS011;12308;50.948;4.706;2022-10-31T03:58:27;29.48;;;15.60;;
24145;SDS011;12308;50.948;4.706;2022-10-31T04:00:57;25.98;;;15.32;;
24145;SDS011;12308;50.948;4.706;2022-10-31T04:03:28;28.83;;;16.05;;
24145;SDS011;12308;50.948;4.706;2022-10-31T04:05:58;27.33;;;14.73;;
24145;SDS011;12308;50.948;4.706;2022-10-31T04:08:28;23.65;;;14.32;;
24145;SDS011;12308;50.948;4.706;2022-10-31T04:10:56;24.77;;;15.05;;
24145;SDS011;12308;50.948;4.706;2022-10-31T04:13:28;23.50;;;15.50;;
24145;SDS011;12308;50.948;4.706;2022-10-31T04:15:56;25.38;;;15.73;;
24145;SDS011;12308;50.948;4.706;2022-10-31T04:18:23;27.67;;;15.02;;
24145;SDS011;12308;50.948;4.706;2022-10-31T04:20:49;33.40;;;15.85;;
24145;SDS011;12308;50.948;4.706;2022-10-31T04:23:26;24.15;;;15.30;;
24145;SDS011;12308;50.948;4.706;2022-10-31T04:25:52;23.58;;;15.23;;
24145;SDS011;12308;50.948;4.706;2022-10-31T04:28:18;25.77;;;15.48;;
24145;SDS011;12308;50.948;4.706;2022-10-31T04:30:44;24.63;;;14.30;;
24145;SDS011;12308;50.948;4.706;2022-10-31T04:33:09;22.75;;;14.73;;
24145;SDS011;12308;50.948;4.706;2022-10-31T04:35:35;27.63;;;15.43;;
24145;SDS011;12308;50.948;4.706;2022-10-31T04:38:01;26.27;;;15.57;;
24145;SDS011;12308;50.948;4.706;2022-10-31T04:40:27;27.75;;;14.63;;
24145;SDS011;12308;50.948;4.706;2022-10-31T04:42:52;24.23;;;14.13;;
24145;SDS011;12308;50.948;4.706;2022-10-31T04:45:18;22.40;;;13.02;;
24145;SDS011;12308;50.948;4.706;2022-10-31T04:47:43;19.95;;;13.38;;
24145;SDS011;12308;50.948;4.706;2022-10-31T04:50:09;18.73;;;13.80;;
24145;SDS011;12308;50.948;4.706;2022-10-31T04:52:38;22.88;;;13.60;;
24145;SDS011;12308;50.948;4.706;2022-10-31T04:55:05;23.15;;;14.18;;
24145;SDS011;12308;50.948;4.706;2022-10-31T04:57:31;25.75;;;14.45;;
24145;SDS011;12308;50.948;4.706;2022-10-31T04:59:56;27.58;;;14.65;;
24145;SDS011;12308;50.948;4.706;2022-10-31T05:02:22;25.00;;;13.77;;
24145;SDS011;12308;50.948;4.706;2022-10-31T05:04:47;22.60;;;14.63;;
24145;SDS011;12308;50.948;4.706;2022-10-31T05:07:13;24.95;;;14.32;;
24145;SDS011;12308;50.948;4.706;2022-10-31T05:09:38;24.35;;;14.15;;
24145;SDS011;12308;50.948;4.706;2022-10-31T05:12:04;25.30;;;14.43;;
24145;SDS011;12308;50.948;4.706;2022-10-31T05:14:30;22.98;;;14.18;;
24145;SDS011;12308;50.948;4.706;2022-10-31T05:16:55;24.13;;;13.93;;
24145;SDS011;12308;50.948;4.706;2022-10-31T05:19:21;29.58;;;14.93;;
24145;SDS011;12308;50.948;4.706;2022-10-31T05:21:47;24.90;;;12.85;;
24145;SDS011;12308;50.948;4.706;2022-10-31T05:24:12;25.35;;;14.73;;
24145;SDS011;12308;50.948;4.706;2022-10-31T05:26:38;26.95;;;16.13;;
24145;SDS011;12308;50.948;4.706;2022-10-31T05:29:03;26.50;;;14.27;;
24145;SDS011;12308;50.948;4.706;2022-10-31T05:31:29;31.85;;;14.82;;
24145;SDS011;12308;50.948;4.706;2022-10-31T05:33:55;28.27;;;15.07;;
24145;SDS011;12308;50.948;4.706;2022-10-31T05:36:20;26.30;;;15.65;;
24145;SDS011;12308;50.948;4.706;2022-10-31T05:38:46;24.40;;;15.35;;
24145;SDS011;12308;50.948;4.706;2022-10-31T05:41:12;27.52;;;15.73;;
24145;SDS011;12308;50.948;4.706;2022-10-31T05:43:37;32.85;;;15.98;;
24145;SDS011;12308;50.948;4.706;2022-10-31T05:46:03;27.35;;;16.33;;
24145;SDS011;12308;50.948;4.706;2022-10-31T05:48:29;30.73;;;15.57;;
24145;SDS011;12308;50.948;4.706;2022-10-31T05:50:54;24.77;;;15.52;;
24145;SDS011;12308;50.948;4.706;2022-10-31T05:53:20;32.80;;;16.42;;
24145;SDS011;12308;50.948;4.706;2022-10-31T05:55:46;30.80;;;17.27;;
24145;SDS011;12308;50.948;4.706;2022-10-31T05:58:11;32.67;;;16.60;;
24145;SDS011;12308;50.948;4.706;2022-10-31T06:00:37;25.35;;;16.48;;
24145;SDS011;12308;50.948;4.706;2022-10-31T06:03:06;29.92;;;15.80;;
24145;SDS011;12308;50.948;4.706;2022-10-31T06:05:33;26.40;;;15.20;;
24145;SDS011;12308;50.948;4.706;2022-10-31T06:07:59;27.65;;;15.02;;
24145;SDS011;12308;50.948;4.706;2022-10-31T06:10:25;31.85;;;16.38;;
24145;SDS011;12308;50.948;4.706;2022-10-31T06:12:51;30.65;;;15.02;;
24145;SDS011;12308;50.948;4.706;2022-10-31T06:15:17;25.25;;;16.13;;
24145;SDS011;12308;50.948;4.706;2022-10-31T06:17:42;35.25;;;16.98;;
24145;SDS011;12308;50.948;4.706;2022-10-31T06:20:08;34.83;;;17.13;;
24145;SDS011;12308;50.948;4.706;2022-10-31T06:22:34;25.33;;;16.25;;
24145;SDS011;12308;50.948;4.706;2022-10-31T06:25:00;31.25;;;17.65;;
24145;SDS011;12308;50.948;4.706;2022-10-31T06:27:25;29.48;;;17.67;;
24145;SDS011;12308;50.948;4.706;2022-10-31T06:29:51;28.42;;;17.40;;
24145;SDS011;12308;50.948;4.706;2022-10-31T06:32:17;27.30;;;17.33;;
24145;SDS011;12308;50.948;4.706;2022-10-31T06:34:43;31.77;;;18.08;;
24145;SDS011;12308;50.948;4.706;2022-10-31T06:37:10;35.50;;;18.23;;
24145;SDS011;12308;50.948;4.706;2022-10-31T06:39:37;29.27;;;17.17;;
24145;SDS011;12308;50.948;4.706;2022-10-31T06:42:03;29.15;;;17.23;;
24145;SDS011;12308;50.948;4.706;2022-10-31T06:44:29;28.83;;;17.20;;
24145;SDS011;12308;50.948;4.706;2022-10-31T06:46:55;34.33;;;18.15;;
24145;SDS011;12308;50.948;4.706;2022-10-31T06:49:21;32.28;;;17.67;;
24145;SDS011;12308;50.948;4.706;2022-10-31T06:51:47;35.00;;;18.35;;
24145;SDS011;12308;50.948;4.706;2022-10-31T06:54:13;34.95;;;19.17;;
24145;SDS011;12308;50.948;4.706;2022-10-31T06:56:39;38.83;;;21.13;;
24145;SDS011;12308;50.948;4.706;2022-10-31T06:59:05;39.38;;;22.10;;
24145;SDS011;12308;50.948;4.706;2022-10-31T07:01:31;37.90;;;21.48;;
24145;SDS011;12308;50.948;4.706;2022-10-31T07:03:56;44.58;;;22.20;;
24145;SDS011;12308;50.948;4.706;2022-10-31T07:06:22;41.15;;;23.98;;
24145;SDS011;12308;50.948;4.706;2022-10-31T07:08:48;41.97;;;22.77;;
24145;SDS011;12308;50.948;4.706;2022-10-31T07:11:13;44.78;;;22.40;;
24145;SDS011;12308;50.948;4.706;2022-10-31T07:13:39;41.50;;;21.90;;
24145;SDS011;12308;50.948;4.706;2022-10-31T07:16:05;38.25;;;22.60;;
24145;SDS011;12308;50.948;4.706;2022-10-31T07:18:31;40.30;;;23.35;;
24145;SDS011;12308;50.948;4.706;2022-10-31T07:20:58;47.58;;;24.15;;
24145;SDS011;12308;50.948;4.706;2022-10-31T07:23:23;45.15;;;24.73;;
24145;SDS011;12308;50.948;4.706;2022-10-31T07:25:54;46.65;;;24.88;;
24145;SDS011;12308;50.948;4.706;2022-10-31T07:28:20;50.25;;;26.83;;
24145;SDS011;12308;50.948;4.706;2022-10-31T07:30:49;46.03;;;25.35;;
24145;SDS011;12308;50.948;4.706;2022-10-31T07:33:16;57.67;;;26.63;;
24145;SDS011;12308;50.948;4.706;2022-10-31T07:35:41;53.90;;;27.63;;
24145;SDS011;12308;50.948;4.706;2022-10-31T07:38:10;51.22;;;27.02;;
24145;SDS011;12308;50.948;4.706;2022-10-31T07:40:37;55.25;;;26.73;;
24145;SDS011;12308;50.948;4.706;2022-10-31T07:43:03;58.60;;;29.33;;
24145;SDS011;12308;50.948;4.706;2022-10-31T07:45:29;49.30;;;28.83;;
24145;SDS011;12308;50.948;4.706;2022-10-31T07:47:55;52.97;;;28.38;;
24145;SDS011;12308;50.948;4.706;2022-10-31T07:50:23;58.97;;;29.90;;
24145;SDS011;12308;50.948;4.706;2022-10-31T07:53:00;53.28;;;28.63;;
24145;SDS011;12308;50.948;4.706;2022-10-31T07:55:31;51.15;;;28.90;;
24145;SDS011;12308;50.948;4.706;2022-10-31T07:58:02;49.90;;;28.65;;
24145;SDS011;12308;50.948;4.706;2022-10-31T08:00:32;53.58;;;29.25;;
24145;SDS011;12308;50.948;4.706;2022-10-31T08:05:29;56.00;;;30.27;;
24145;SDS011;12308;50.948;4.706;2022-10-31T08:07:55;55.90;;;29.25;;
24145;SDS011;12308;50.948;4.706;2022-10-31T08:10:22;55.35;;;29.10;;
24145;SDS011;12308;50.948;4.706;2022-10-31T08:12:55;59.90;;;30.60;;
24145;SDS011;12308;50.948;4.706;2022-10-31T08:15:25;52.25;;;29.10;;
24145;SDS011;12308;50.948;4.706;2022-10-31T08:17:51;63.22;;;32.83;;
24145;SDS011;12308;50.948;4.706;2022-10-31T08:20:17;58.60;;;32.45;;
24145;SDS011;12308;50.948;4.706;2022-10-31T08:22:42;64.45;;;33.60;;
24145;SDS011;12308;50.948;4.706;2022-10-31T08:25:08;63.88;;;32.92;;
24145;SDS011;12308;50.948;4.706;2022-10-31T08:27:34;61.35;;;32.83;;
24145;SDS011;12308;50.948;4.706;2022-10-31T08:29:59;70.07;;;33.85;;
24145;SDS011;12308;50.948;4.706;2022-10-31T08:32:25;73.40;;;34.08;;
24145;SDS011;12308;50.948;4.706;2022-10-31T08:34:51;69.47;;;33.75;;
24145;SDS011;12308;50.948;4.706;2022-10-31T08:37:16;59.70;;;34.17;;
24145;SDS011;12308;50.948;4.706;2022-10-31T08:39:47;71.07;;;36.50;;
24145;SDS011;12308;50.948;4.706;2022-10-31T08:42:13;70.32;;;35.05;;
24145;SDS011;12308;50.948;4.706;2022-10-31T08:44:38;67.13;;;34.42;;
24145;SDS011;12308;50.948;4.706;2022-10-31T08:47:04;65.00;;;34.97;;
24145;SDS011;12308;50.948;4.706;2022-10-31T08:49:30;74.70;;;34.65;;
24145;SDS011;12308;50.948;4.706;2022-10-31T08:51:55;63.42;;;34.63;;
24145;SDS011;12308;50.948;4.706;2022-10-31T08:54:21;68.20;;;35.25;;
24145;SDS011;12308;50.948;4.706;2022-10-31T08:56:47;69.18;;;37.30;;
24145;SDS011;12308;50.948;4.706;2022-10-31T08:59:12;67.20;;;35.92;;
24145;SDS011;12308;50.948;4.706;2022-10-31T09:01:38;66.55;;;37.78;;
24145;SDS011;12308;50.948;4.706;2022-10-31T09:04:03;65.72;;;34.63;;
24145;SDS011;12308;50.948;4.706;2022-10-31T09:06:29;69.60;;;35.45;;
24145;SDS011;12308;50.948;4.706;2022-10-31T09:08:55;66.22;;;34.42;;
24145;SDS011;12308;50.948;4.706;2022-10-31T09:11:20;64.63;;;34.67;;
24145;SDS011;12308;50.948;4.706;2022-10-31T09:13:46;69.30;;;34.85;;
24145;SDS011;12308;50.948;4.706;2022-10-31T09:16:12;73.65;;;35.78;;
24145;SDS011;12308;50.948;4.706;2022-10-31T09:18:37;68.82;;;35.83;;
24145;SDS011;12308;50.948;4.706;2022-10-31T09:21:03;68.25;;;35.67;;
24145;SDS011;12308;50.948;4.706;2022-10-31T09:23:28;69.85;;;36.47;;
24145;SDS011;12308;50.948;4.706;2022-10-31T09:25:54;71.72;;;36.88;;
24145;SDS011;12308;50.948;4.706;2022-10-31T09:28:21;69.75;;;37.63;;
24145;SDS011;12308;50.948;4.706;2022-10-31T09:30:48;71.28;;;38.50;;
24145;SDS011;12308;50.948;4.706;2022-10-31T09:33:16;67.03;;;36.20;;
24145;SDS011;12308;50.948;4.706;2022-10-31T09:35:43;65.45;;;36.50;;
24145;SDS011;12308;50.948;4.706;2022-10-31T09:38:09;73.45;;;34.83;;
24145;SDS011;12308;50.948;4.706;2022-10-31T09:45:37;61.53;;;34.67;;
24145;SDS011;12308;50.948;4.706;2022-10-31T09:50:55;57.58;;;33.90;;
24145;SDS011;12308;50.948;4.706;2022-10-31T09:53:36;62.88;;;35.45;;
24145;SDS011;12308;50.948;4.706;2022-10-31T09:56:09;62.35;;;35.05;;
24145;SDS011;12308;50.948;4.706;2022-10-31T09:58:46;70.40;;;35.58;;
24145;SDS011;12308;50.948;4.706;2022-10-31T10:01:25;63.50;;;34.50;;
24145;SDS011;12308;50.948;4.706;2022-10-31T10:04:01;66.20;;;34.08;;
24145;SDS011;12308;50.948;4.706;2022-10-31T10:06:49;62.03;;;34.53;;
24145;SDS011;12308;50.948;4.706;2022-10-31T10:09:15;65.63;;;35.58;;
24145;SDS011;12308;50.948;4.706;2022-10-31T10:11:55;62.80;;;35.90;;
24145;SDS011;12308;50.948;4.706;2022-10-31T10:18:05;60.30;;;34.03;;
24145;SDS011;12308;50.948;4.706;2022-10-31T10:26:36;64.63;;;34.30;;
24145;SDS011;12308;50.948;4.706;2022-10-31T10:31:35;57.75;;;32.65;;
24145;SDS011;12308;50.948;4.706;2022-10-31T10:36:47;60.95;;;30.70;;
24145;SDS011;12308;50.948;4.706;2022-10-31T10:39:29;59.58;;;30.23;;
24145;SDS011;12308;50.948;4.706;2022-10-31T10:42:00;52.17;;;29.50;;
24145;SDS011;12308;50.948;4.706;2022-10-31T10:44:45;56.90;;;29.05;;
24145;SDS011;12308;50.948;4.706;2022-10-31T10:47:36;57.25;;;29.05;;
24145;SDS011;12308;50.948;4.706;2022-10-31T10:52:57;46.78;;;26.10;;
24145;SDS011;12308;50.948;4.706;2022-10-31T10:55:41;51.28;;;26.92;;
24145;SDS011;12308;50.948;4.706;2022-10-31T10:58:24;47.47;;;26.42;;
24145;SDS011;12308;50.948;4.706;2022-10-31T11:00:50;50.65;;;24.95;;
24145;SDS011;12308;50.948;4.706;2022-10-31T11:03:18;45.85;;;23.95;;
24145;SDS011;12308;50.948;4.706;2022-10-31T11:13:47;42.85;;;22.13;;
24145;SDS011;12308;50.948;4.706;2022-10-31T11:18:52;38.20;;;20.15;;
24145;SDS011;12308;50.948;4.706;2022-10-31T11:21:24;34.88;;;19.00;;
24145;SDS011;12308;50.948;4.706;2022-10-31T11:24:36;36.35;;;19.42;;
24145;SDS011;12308;50.948;4.706;2022-10-31T11:26:43;39.72;;;20.20;;
24145;SDS011;12308;50.948;4.706;2022-10-31T11:29:15;36.47;;;18.02;;
24145;SDS011;12308;50.948;4.706;2022-10-31T11:31:51;36.00;;;17.02;;
24145;SDS011;12308;50.948;4.706;2022-10-31T11:34:29;35.55;;;16.13;;
24145;SDS011;12308;50.948;4.706;2022-10-31T11:37:03;34.10;;;15.75;;
24145;SDS011;12308;50.948;4.706;2022-10-31T11:39:39;34.97;;;14.98;;
24145;SDS011;12308;50.948;4.706;2022-10-31T11:42:07;33.97;;;15.05;;
24145;SDS011;12308;50.948;4.706;2022-10-31T11:44:33;36.17;;;15.43;;
24145;SDS011;12308;50.948;4.706;2022-10-31T11:47:02;28.25;;;14.77;;
24145;SDS011;12308;50.948;4.706;2022-10-31T11:52:06;27.08;;;14.45;;
24145;SDS011;12308;50.948;4.706;2022-10-31T11:57:32;31.90;;;13.85;;
24145;SDS011;12308;50.948;4.706;2022-10-31T12:00:20;30.42;;;13.65;;
24145;SDS011;12308;50.948;4.706;2022-10-31T12:02:46;29.42;;;13.75;;
24145;SDS011;12308;50.948;4.706;2022-10-31T12:05:19;31.30;;;13.73;;
24145;SDS011;12308;50.948;4.706;2022-10-31T12:07:50;37.17;;;14.23;;
24145;SDS011;12308;50.948;4.706;2022-10-31T12:10:16;30.55;;;13.65;;
24145;SDS011;12308;50.948;4.706;2022-10-31T12:20:46;29.98;;;13.30;;
24145;SDS011;12308;50.948;4.706;2022-10-31T12:45:28;25.60;;;11.75;;
24145;SDS011;12308;50.948;4.706;2022-10-31T12:51:40;24.75;;;12.45;;
24145;SDS011;12308;50.948;4.706;2022-10-31T12:54:30;29.92;;;13.48;;
24145;SDS011;12308;50.948;4.706;2022-10-31T12:59:56;33.25;;;13.35;;
24145;SDS011;12308;50.948;4.706;2022-10-31T13:05:05;24.02;;;11.73;;
24145;SDS011;12308;50.948;4.706;2022-10-31T13:07:48;29.38;;;12.13;;
24145;SDS011;12308;50.948;4.706;2022-10-31T13:15:51;27.65;;;12.27;;
24145;SDS011;12308;50.948;4.706;2022-10-31T13:18:25;25.40;;;11.65;;
24145;SDS011;12308;50.948;4.706;2022-10-31T13:20:52;27.10;;;12.57;;
24145;SDS011;12308;50.948;4.706;2022-10-31T13:23:22;24.00;;;12.25;;
24145;SDS011;12308;50.948;4.706;2022-10-31T13:25:54;30.27;;;12.75;;
24145;SDS011;12308;50.948;4.706;2022-10-31T13:28:24;57.92;;;21.38;;
24145;SDS011;12308;50.948;4.706;2022-10-31T13:30:55;66.78;;;21.50;;
24145;SDS011;12308;50.948;4.706;2022-10-31T13:33:31;28.17;;;11.68;;
24145;SDS011;12308;50.948;4.706;2022-10-31T13:46:39;31.40;;;11.68;;
24145;SDS011;12308;50.948;4.706;2022-10-31T13:49:23;26.98;;;11.10;;
24145;SDS011;12308;50.948;4.706;2022-10-31T13:51:49;22.02;;;11.15;;
24145;SDS011;12308;50.948;4.706;2022-10-31T13:54:52;25.15;;;11.27;;
24145;SDS011;12308;50.948;4.706;2022-10-31T13:59:58;26.38;;;11.50;;
24145;SDS011;12308;50.948;4.706;2022-10-31T14:02:30;25.73;;;11.23;;
24145;SDS011;12308;50.948;4.706;2022-10-31T14:05:02;24.50;;;11.80;;
24145;SDS011;12308;50.948;4.706;2022-10-31T14:07:42;30.40;;;13.18;;
24145;SDS011;12308;50.948;4.706;2022-10-31T14:12:47;29.90;;;12.55;;
24145;SDS011;12308;50.948;4.706;2022-10-31T14:18:00;23.58;;;12.25;;
24145;SDS011;12308;50.948;4.706;2022-10-31T14:25:51;36.42;;;14.60;;
24145;SDS011;12308;50.948;4.706;2022-10-31T14:28:19;31.55;;;15.90;;
24145;SDS011;12308;50.948;4.706;2022-10-31T14:30:51;35.70;;;14.38;;
24145;SDS011;12308;50.948;4.706;2022-10-31T14:33:19;32.35;;;13.93;;
24145;SDS011;12308;50.948;4.706;2022-10-31T14:35:52;32.72;;;15.43;;
24145;SDS011;12308;50.948;4.706;2022-10-31T14:38:48;34.97;;;15.27;;
24145;SDS011;12308;50.948;4.706;2022-10-31T14:49:46;33.00;;;15.27;;
24145;SDS011;12308;50.948;4.706;2022-10-31T14:52:34;27.42;;;14.48;;
24145;SDS011;12308;50.948;4.706;2022-10-31T14:55:02;32.58;;;14.85;;
24145;SDS011;12308;50.948;4.706;2022-10-31T14:57:35;32.42;;;14.63;;
24145;SDS011;12308;50.948;4.706;2022-10-31T15:00:04;30.92;;;14.93;;
24145;SDS011;12308;50.948;4.706;2022-10-31T15:05:08;35.17;;;15.13;;
24145;SDS011;12308;50.948;4.706;2022-10-31T15:07:34;36.53;;;14.25;;
24145;SDS011;12308;50.948;4.706;2022-10-31T15:10:05;29.27;;;14.70;;
24145;SDS011;12308;50.948;4.706;2022-10-31T15:12:43;32.88;;;15.40;;
24145;SDS011;12308;50.948;4.706;2022-10-31T15:15:13;27.35;;;14.27;;
24145;SDS011;12308;50.948;4.706;2022-10-31T15:20:24;30.92;;;15.20;;
24145;SDS011;12308;50.948;4.706;2022-10-31T15:22:52;36.10;;;15.18;;
24145;SDS011;12308;50.948;4.706;2022-10-31T15:25:22;32.55;;;14.68;;
24145;SDS011;12308;50.948;4.706;2022-10-31T15:27:49;39.53;;;15.48;;
24145;SDS011;12308;50.948;4.706;2022-10-31T15:30:19;29.38;;;14.80;;
24145;SDS011;12308;50.948;4.706;2022-10-31T15:32:47;27.63;;;14.70;;
24145;SDS011;12308;50.948;4.706;2022-10-31T15:35:22;30.13;;;15.00;;
24145;SDS011;12308;50.948;4.706;2022-10-31T15:37:51;38.83;;;14.75;;
24145;SDS011;12308;50.948;4.706;2022-10-31T15:40:18;34.55;;;15.80;;
24145;SDS011;12308;50.948;4.706;2022-10-31T15:42:48;39.22;;;16.08;;
24145;SDS011;12308;50.948;4.706;2022-10-31T15:45:21;33.90;;;15.35;;
24145;SDS011;12308;50.948;4.706;2022-10-31T15:52:54;34.95;;;17.10;;
24145;SDS011;12308;50.948;4.706;2022-10-31T15:55:24;37.00;;;17.08;;
24145;SDS011;12308;50.948;4.706;2022-10-31T15:57:56;30.95;;;15.95;;
24145;SDS011;12308;50.948;4.706;2022-10-31T16:03:34;37.70;;;17.50;;
24145;SDS011;12308;50.948;4.706;2022-10-31T16:08:46;44.65;;;18.65;;
24145;SDS011;12308;50.948;4.706;2022-10-31T16:16:26;36.65;;;17.20;;
24145;SDS011;12308;50.948;4.706;2022-10-31T16:18:54;44.28;;;18.10;;
24145;SDS011;12308;50.948;4.706;2022-10-31T16:21:28;42.45;;;17.55;;
24145;SDS011;12308;50.948;4.706;2022-10-31T16:23:58;42.38;;;18.20;;
24145;SDS011;12308;50.948;4.706;2022-10-31T16:26:30;38.60;;;17.90;;
24145;SDS011;12308;50.948;4.706;2022-10-31T16:28:57;59.13;;;28.63;;
24145;SDS011;12308;50.948;4.706;2022-10-31T16:31:38;41.63;;;20.35;;
24145;SDS011;12308;50.948;4.706;2022-10-31T16:34:15;39.25;;;19.10;;
24145;SDS011;12308;50.948;4.706;2022-10-31T16:36:45;41.85;;;19.15;;
24145;SDS011;12308;50.948;4.706;2022-10-31T16:39:10;47.78;;;19.52;;
24145;SDS011;12308;50.948;4.706;2022-10-31T16:41:39;92.43;;;49.05;;
24145;SDS011;12308;50.948;4.706;2022-10-31T16:44:12;39.63;;;19.77;;
24145;SDS011;12308;50.948;4.706;2022-10-31T16:46:44;42.28;;;19.02;;
24145;SDS011;12308;50.948;4.706;2022-10-31T16:49:10;50.22;;;20.70;;
24145;SDS011;12308;50.948;4.706;2022-10-31T16:51:36;43.42;;;17.20;;
24145;SDS011;12308;50.948;4.706;2022-10-31T16:54:02;42.60;;;18.95;;
24145;SDS011;12308;50.948;4.706;2022-10-31T16:56:28;40.92;;;18.17;;
24145;SDS011;12308;50.948;4.706;2022-10-31T16:58:56;34.25;;;15.88;;
24145;SDS011;12308;50.948;4.706;2022-10-31T17:01:23;51.15;;;22.67;;
24145;SDS011;12308;50.948;4.706;2022-10-31T17:03:49;81.10;;;29.38;;
24145;SDS011;12308;50.948;4.706;2022-10-31T17:06:14;87.97;;;33.67;;
24145;SDS011;12308;50.948;4.706;2022-10-31T17:08:40;239.52;;;75.32;;
24145;SDS011;12308;50.948;4.706;2022-10-31T17:11:08;247.77;;;76.93;;
24145;SDS011;12308;50.948;4.706;2022-10-31T17:13:41;333.75;;;95.13;;
24145;SDS011;12308;50.948;4.706;2022-10-31T17:16:07;1162.60;;;387.73;;
24145;SDS011;12308;50.948;4.706;2022-10-31T17:18:32;1140.55;;;397.65;;
24145;SDS011;12308;50.948;4.706;2022-10-31T17:20:59;591.80;;;179.73;;
24145;SDS011;12308;50.948;4.706;2022-10-31T17:23:26;371.92;;;108.68;;
24145;SDS011;12308;50.948;4.706;2022-10-31T17:25:53;131.27;;;39.45;;
24145;SDS011;12308;50.948;4.706;2022-10-31T17:28:19;565.95;;;173.45;;
24145;SDS011;12308;50.948;4.706;2022-10-31T17:30:45;640.58;;;197.70;;
24145;SDS011;12308;50.948;4.706;2022-10-31T17:33:11;160.85;;;48.40;;